createdAt,value
2019-02-23T00:01:58.621Z,57.10
2019-02-23T00:07:04.903Z,57.10
2019-02-23T00:12:10.845Z,57.10
2019-02-23T00:17:26.939Z,57.00
2019-02-23T00:22:32.936Z,57.10
2019-02-23T00:27:38.789Z,57.10
2019-02-23T00:32:44.816Z,57.00
2019-02-23T00:37:49.965Z,57.00
2019-02-23T00:42:56.404Z,57.00
2019-02-23T00:48:02.912Z,56.90
2019-02-23T00:53:08.726Z,56.90
2019-02-23T00:58:15.525Z,56.90
2019-02-23T01:03:22.385Z,57.40
2019-02-23T01:08:28.897Z,56.90
2019-02-23T01:13:35.962Z,56.80
2019-02-23T01:18:42.491Z,56.80
2019-02-23T01:23:47.855Z,56.80
2019-02-23T01:28:53.623Z,56.80
2019-02-23T01:33:59.793Z,56.80
2019-02-23T01:39:07.694Z,56.70
2019-02-23T01:44:12.977Z,56.80
2019-02-23T01:49:19.305Z,56.70
2019-02-23T01:54:25.503Z,56.60
2019-02-23T01:59:31.377Z,56.60
2019-02-23T02:04:37.957Z,56.50
2019-02-23T02:09:43.876Z,56.60
2019-02-23T02:14:49.912Z,56.50
2019-02-23T02:19:58.004Z,56.50
2019-02-23T02:25:03.682Z,56.50
2019-02-23T02:30:11.607Z,56.40
2019-02-23T02:35:18.333Z,56.40
2019-02-23T02:40:26.069Z,56.40
2019-02-23T02:45:32.435Z,56.30
2019-02-23T02:50:38.732Z,56.30
2019-02-23T02:55:44.873Z,56.30
2019-02-23T03:00:50.539Z,56.30
2019-02-23T03:05:56.843Z,56.30
2019-02-23T03:11:03.452Z,56.30
2019-02-23T03:16:31.470Z,56.20
2019-02-23T03:21:36.638Z,56.20
2019-02-23T03:26:42.669Z,56.10
2019-02-23T03:31:48.558Z,56.20
2019-02-23T03:36:55.462Z,56.10
2019-02-23T03:42:01.465Z,56.10
2019-02-23T03:47:07.865Z,56.00
2019-02-23T03:52:13.833Z,56.00
2019-02-23T03:57:20.287Z,56.10
2019-02-23T04:02:26.157Z,56.00
2019-02-23T04:07:32.040Z,56.10
2019-02-23T04:12:37.532Z,56.00
2019-02-23T04:17:43.572Z,56.00
2019-02-23T04:22:49.655Z,56.00
2019-02-23T04:27:56.256Z,56.00
2019-02-23T04:33:02.309Z,55.90
2019-02-23T04:38:08.539Z,55.90
2019-02-23T04:43:14.973Z,55.90
2019-02-23T04:48:21.365Z,55.80
2019-02-23T04:53:27.221Z,55.90
2019-02-23T04:58:33.640Z,55.80
2019-02-23T05:03:39.574Z,55.90
2019-02-23T05:08:46.412Z,55.80
2019-02-23T05:13:51.675Z,55.90
2019-02-23T05:19:00.046Z,55.70
2019-02-23T05:24:07.064Z,55.80
2019-02-23T05:29:13.502Z,55.80
2019-02-23T05:34:21.946Z,55.70
2019-02-23T05:39:29.145Z,56.40
2019-02-23T05:45:04.190Z,55.70
2019-02-23T05:50:10.572Z,55.60
2019-02-23T05:55:17.817Z,55.60
2019-02-23T06:00:24.078Z,55.60
2019-02-23T06:05:29.053Z,55.50
2019-02-23T06:10:34.337Z,55.60
2019-02-23T06:15:40.869Z,55.50
2019-02-23T06:20:47.304Z,55.40
2019-02-23T06:25:53.574Z,55.50
2019-02-23T06:30:59.813Z,55.40
2019-02-23T06:36:08.345Z,55.40
2019-02-23T06:41:14.606Z,55.40
2019-02-23T06:46:20.676Z,55.40
2019-02-23T06:51:27.225Z,55.30
2019-02-23T06:56:33.070Z,55.30
2019-02-23T07:01:40.797Z,55.30
2019-02-23T07:06:48.558Z,55.30
2019-02-23T07:11:53.957Z,55.30
2019-02-23T07:17:01.370Z,55.50
2019-02-23T07:22:14.989Z,55.30
2019-02-23T07:27:14.823Z,55.80
2019-02-23T07:32:21.168Z,55.10
2019-02-23T07:37:27.950Z,55.10
2019-02-23T07:42:35.201Z,55.30
2019-02-23T07:47:42.373Z,55.40
2019-02-23T07:52:48.634Z,55.60
2019-02-23T07:57:54.154Z,55.50
2019-02-23T08:02:59.414Z,55.50
2019-02-23T08:08:04.836Z,55.70
2019-02-23T08:13:10.962Z,55.60
2019-02-23T08:18:17.930Z,55.60
2019-02-23T08:23:24.022Z,55.60
2019-02-23T08:28:31.589Z,55.70
2019-02-23T08:33:37.588Z,55.70
2019-02-23T08:38:42.738Z,55.80
2019-02-23T08:43:48.260Z,55.80
2019-02-23T08:48:54.563Z,55.90
2019-02-23T08:54:08.196Z,55.90
2019-02-23T08:59:15.341Z,55.90
2019-02-23T09:04:21.353Z,55.90
2019-02-23T09:09:26.676Z,56.00
2019-02-23T09:14:31.917Z,56.00
2019-02-23T09:19:38.517Z,56.10
2019-02-23T09:24:50.662Z,56.10
2019-02-23T09:29:57.496Z,56.10
2019-02-23T09:35:03.821Z,56.00
2019-02-23T09:40:10.394Z,56.20
2019-02-23T09:45:16.157Z,56.10
2019-02-23T09:50:22.388Z,56.20
2019-02-23T09:55:28.789Z,56.20
2019-02-23T10:00:33.889Z,56.20
2019-02-23T10:05:40.756Z,56.20
2019-02-23T10:10:46.885Z,56.20
2019-02-23T10:15:53.440Z,56.10
2019-02-23T10:20:59.940Z,56.10
2019-02-23T10:26:07.245Z,56.00
2019-02-23T10:31:13.777Z,56.10
2019-02-23T10:36:19.650Z,56.10
2019-02-23T10:41:26.021Z,56.00
2019-02-23T10:46:31.721Z,56.00
2019-02-23T10:51:38.749Z,55.60
2019-02-23T10:56:46.930Z,55.00
2019-02-23T11:01:52.790Z,54.90
2019-02-23T11:06:58.472Z,54.70
2019-02-23T11:12:04.454Z,54.80
2019-02-23T11:17:10.013Z,54.70
2019-02-23T11:22:15.938Z,54.50
2019-02-23T11:27:22.749Z,54.50
2019-02-23T11:32:28.991Z,54.60
2019-02-23T11:37:35.548Z,54.50
2019-02-23T11:42:41.532Z,54.50
2019-02-23T11:47:47.964Z,54.40
2019-02-23T11:52:55.716Z,54.50
2019-02-23T11:58:01.060Z,54.50
2019-02-23T12:03:07.028Z,54.40
2019-02-23T12:08:14.218Z,54.40
2019-02-23T12:13:21.194Z,54.40
2019-02-23T12:18:27.258Z,54.20
2019-02-23T12:23:37.821Z,54.10
2019-02-23T12:28:44.655Z,54.10
2019-02-23T12:33:50.721Z,54.10
2019-02-23T12:38:57.041Z,54.10
2019-02-23T12:44:05.088Z,54.00
2019-02-23T12:49:10.782Z,53.90
2019-02-23T12:54:17.254Z,53.90
2019-02-23T12:59:25.332Z,53.90
2019-02-23T13:04:32.631Z,53.70
2019-02-23T13:09:41.617Z,53.90
2019-02-23T13:15:20.939Z,54.00
2019-02-23T13:20:40.398Z,53.90
2019-02-23T13:26:27.357Z,53.80
2019-02-23T13:32:01.932Z,53.80
2019-02-23T13:37:29.809Z,53.80
2019-02-23T13:43:10.186Z,53.80
2019-02-23T13:48:59.987Z,53.70
2019-02-23T13:54:38.830Z,53.60
2019-02-23T14:00:16.747Z,53.60
2019-02-23T14:05:50.844Z,53.60
2019-02-23T14:11:43.217Z,53.60
2019-02-23T14:17:39.229Z,53.40
2019-02-23T14:23:13.257Z,53.50
2019-02-23T14:28:47.464Z,53.50
2019-02-23T14:34:33.876Z,53.40
2019-02-23T14:40:03.118Z,53.50
2019-02-23T14:45:39.075Z,53.40
2019-02-23T14:51:16.913Z,53.50
2019-02-23T14:57:08.106Z,53.30
2019-02-23T15:03:10.164Z,53.30
2019-02-23T15:09:06.996Z,53.90
2019-02-23T15:14:26.766Z,53.20
2019-02-23T15:20:06.537Z,53.30
2019-02-23T15:25:57.818Z,53.30
2019-02-23T15:31:53.348Z,53.40
2019-02-23T15:37:35.380Z,53.30
2019-02-23T15:43:27.397Z,53.30
2019-02-23T15:49:20.252Z,53.40
2019-02-23T15:54:28.856Z,53.40
2019-02-23T15:59:34.258Z,53.40
2019-02-23T16:04:41.180Z,53.30
2019-02-23T16:09:48.149Z,53.40
2019-02-23T16:14:54.241Z,53.30
2019-02-23T16:20:00.567Z,53.40
2019-02-23T16:25:07.334Z,53.30
2019-02-23T16:30:32.173Z,53.30
2019-02-23T16:35:40.066Z,53.30
2019-02-23T16:40:45.610Z,53.30
2019-02-23T16:45:51.636Z,53.30
2019-02-23T16:56:59.890Z,53.40
2019-02-23T17:02:06.746Z,53.30
2019-02-23T17:07:12.430Z,53.30
2019-02-23T17:12:19.612Z,53.30
2019-02-23T17:17:28.309Z,53.30
2019-02-23T17:22:34.965Z,53.50
2019-02-23T17:27:41.474Z,53.30
2019-02-23T17:32:47.314Z,53.20
2019-02-23T17:37:53.314Z,53.20
2019-02-23T17:42:59.269Z,53.10
2019-02-23T17:48:05.428Z,53.10
2019-02-23T17:53:11.968Z,53.10
2019-02-23T17:58:19.527Z,53.10
2019-02-23T18:03:26.671Z,53.10
2019-02-23T18:08:32.628Z,53.00
2019-02-23T18:13:39.709Z,53.80
2019-02-23T18:18:45.998Z,53.80
2019-02-23T18:23:52.684Z,53.70
2019-02-23T18:28:59.319Z,53.70
2019-02-23T18:34:05.236Z,53.60
2019-02-23T18:39:12.781Z,53.70
2019-02-23T18:44:19.315Z,53.60
2019-02-23T18:49:26.464Z,53.70
2019-02-23T18:54:32.210Z,53.60
2019-02-23T18:59:37.900Z,53.60
2019-02-23T19:04:46.054Z,53.50
2019-02-23T19:09:52.450Z,53.50
2019-02-23T19:14:59.469Z,53.60
2019-02-23T19:20:05.377Z,53.40
2019-02-23T19:25:12.603Z,53.40
2019-02-23T19:30:19.321Z,53.40
2019-02-23T19:35:25.533Z,53.40
2019-02-23T19:40:32.382Z,53.40
2019-02-23T19:45:37.845Z,53.30
2019-02-23T19:50:50.132Z,53.30
2019-02-23T19:55:57.361Z,53.20
2019-02-23T20:01:03.626Z,53.20
2019-02-23T20:06:11.211Z,53.20
2019-02-23T20:11:17.927Z,53.20
2019-02-23T20:16:23.494Z,53.20
2019-02-23T20:21:30.752Z,53.90
2019-02-23T20:26:42.251Z,53.20
2019-02-23T20:31:50.055Z,53.10
2019-02-23T20:36:56.920Z,53.10
2019-02-23T20:42:02.238Z,53.00
2019-02-23T20:47:09.132Z,53.00
2019-02-23T20:52:15.060Z,53.00
2019-02-23T20:57:21.782Z,53.00
2019-02-23T21:02:28.156Z,53.00
2019-02-23T21:07:36.381Z,52.90
2019-02-23T21:12:41.910Z,52.90
2019-02-23T21:17:48.888Z,52.90
2019-02-23T21:22:54.981Z,52.90
2019-02-23T21:28:02.423Z,52.90
2019-02-23T21:33:08.878Z,52.80
2019-02-23T21:38:14.853Z,52.80
2019-02-23T21:43:21.037Z,52.70
2019-02-23T21:48:26.603Z,52.70
2019-02-23T21:53:33.908Z,52.70
2019-02-23T21:58:40.705Z,52.70
2019-02-23T22:03:46.501Z,52.70
2019-02-23T22:08:53.034Z,52.60
2019-02-23T22:14:00.106Z,52.60
2019-02-23T22:19:05.978Z,52.50
2019-02-23T22:24:23.329Z,52.60
2019-02-23T22:29:30.272Z,52.50
2019-02-23T22:34:35.179Z,52.40
2019-02-23T22:39:41.959Z,52.40
2019-02-23T22:44:47.230Z,52.30
2019-02-23T22:49:53.526Z,52.40
2019-02-23T22:54:58.978Z,52.40
2019-02-23T23:00:04.331Z,52.40
2019-02-23T23:05:08.931Z,52.20
2019-02-23T23:10:14.990Z,52.30
2019-02-23T23:15:22.530Z,52.30
2019-02-23T23:20:29.393Z,52.20
2019-02-23T23:25:35.804Z,52.20
2019-02-23T23:30:44.198Z,52.10
2019-02-23T23:35:50.051Z,52.20
2019-02-23T23:40:55.728Z,52.10
2019-02-23T23:46:01.593Z,52.10
2019-02-23T23:51:07.950Z,52.10
2019-02-23T23:56:15.273Z,52.00
